| time (UTC) | temp F | wind direction | speed knots | gust knots | rain 1hr in | rain 24hr in | rain mn in | humidity % | barometer mb |
| 20260506202103 | 44 | 291 | 0.9 | 6.1 | 0.02 | 0.86 | 0.71 | 95 | 1008.5 |
| 20260506201600 | 44 | 326 | 0.9 | 2.6 | 0.02 | 0.87 | 0.71 | 95 | 1008.5 |
| 20260506201100 | 44 | 310 | 0.0 | 2.6 | 0.01 | 0.88 | 0.70 | 95 | 1008.5 |
| 20260506200817 | 44 | 288 | 0.9 | 1.7 | 0.01 | 0.88 | 0.70 | 95 | 1008.5 |
| 20260506200058 | 44 | 288 | 0.9 | 3.5 | 0.01 | 0.88 | 0.70 | 95 | 1008.5 |
| 20260506195556 | 44 | 296 | 0.9 | 3.5 | 0.01 | 0.88 | 0.70 | 94 | 1008.4 |
| 20260506195059 | 44 | 290 | 0.0 | 1.7 | 0.01 | 0.88 | 0.70 | 95 | 1008.3 |
| 20260506194557 | 44 | 351 | 0.0 | 1.7 | 0.02 | 0.88 | 0.70 | 95 | 1008.3 |
| 20260506194053 | 44 | 340 | 0.9 | 2.6 | 0.02 | 0.88 | 0.70 | 95 | 1008.3 |
| 20260506193553 | 44 | 298 | 0.9 | 5.2 | 0.02 | 0.88 | 0.70 | 95 | 1008.2 |
| 20260506193054 | 44 | 346 | 0.9 | 5.2 | 0.02 | 0.88 | 0.70 | 95 | 1008.2 |
| 20260506192813 | 44 | 350 | 0.9 | 3.5 | 0.02 | 0.89 | 0.70 | 95 | 1008.0 |
| 20260506192054 | 44 | 266 | 0.9 | 3.5 | 0.01 | 0.92 | 0.69 | 95 | 1008.2 |
| 20260506191551 | 44 | 324 | 1.7 | 4.3 | 0.01 | 0.92 | 0.69 | 95 | 1008.0 |
| 20260506191049 | 44 | 49 | 0.9 | 4.3 | 0.01 | 0.92 | 0.69 | 95 | 1007.9 |
| 20260506190809 | 44 | 76 | 0.0 | 2.6 | 0.01 | 0.92 | 0.69 | 95 | 1007.9 |
| 20260506190049 | 44 | 329 | 0.9 | 1.7 | 0.02 | 0.93 | 0.69 | 95 | 1008.2 |
| 20260506185547 | 44 | 15 | 0.0 | 3.5 | 0.02 | 0.93 | 0.69 | 95 | 1008.2 |
| 20260506185041 | 44 | 17 | 0.9 | 3.5 | 0.02 | 0.93 | 0.69 | 95 | 1008.3 |
| 20260506184535 | 43 | 342 | 0.9 | 2.6 | 0.01 | 0.92 | 0.68 | 95 | 1008.5 |
| 20260506184029 | 43 | 331 | 0.9 | 3.5 | 0.02 | 0.92 | 0.68 | 95 | 1008.5 |
| 20260506183522 | 44 | 320 | 0.0 | 3.5 | 0.02 | 0.92 | 0.68 | 95 | 1008.6 |
| 20260506183018 | 44 | 297 | 0.9 | 2.6 | 0.02 | 0.92 | 0.68 | 95 | 1008.6 |
| 20260506182512 | 43 | 326 | 0.9 | 4.3 | 0.03 | 0.92 | 0.68 | 95 | 1008.7 |
| 20260506182007 | 44 | 289 | 0.0 | 4.3 | 0.04 | 0.92 | 0.68 | 95 | 1008.7 |
| 20260506181500 | 44 | 299 | 0.0 | 0.9 | 0.04 | 0.92 | 0.68 | 95 | 1008.9 |
| 20260506180959 | 43 | 316 | 0.0 | 1.7 | 0.04 | 0.92 | 0.68 | 95 | 1008.9 |
| 20260506180458 | 44 | 345 | 0.0 | 1.7 | 0.04 | 0.91 | 0.67 | 95 | 1008.9 |
| 20260506180219 | 43 | 321 | 0.0 | 2.6 | 0.04 | 0.91 | 0.67 | 95 | 1009.0 |
| 20260506175457 | 43 | 30 | 0.0 | 2.6 | 0.04 | 0.91 | 0.67 | 95 | 1009.0 |
| 20260506175223 | 44 | 36 | 0.0 | 2.6 | 0.05 | 0.91 | 0.67 | 95 | 1009.0 |
| 20260506174457 | 43 | 302 | 0.0 | 0.0 | 0.05 | 0.91 | 0.67 | 95 | 1009.2 |
| 20260506173956 | 43 | 307 | 0.0 | 0.0 | 0.05 | 0.90 | 0.66 | 95 | 1009.1 |
| 20260506173453 | 43 | 306 | 0.0 | 1.7 | 0.06 | 0.90 | 0.66 | 95 | 1009.0 |
| 20260506172953 | 43 | 273 | 0.0 | 2.6 | 0.05 | 0.89 | 0.66 | 95 | 1009.1 |
| 20260506172449 | 43 | 323 | 0.0 | 2.6 | 0.06 | 0.89 | 0.65 | 95 | 1009.1 |
| 20260506171947 | 43 | 261 | 0.0 | 2.6 | 0.06 | 0.88 | 0.64 | 95 | 1009.3 |
| 20260506171449 | 43 | 278 | 0.9 | 2.6 | 0.07 | 0.88 | 0.64 | 95 | 1009.1 |
| 20260506171210 | 43 | 23 | 0.9 | 4.3 | 0.07 | 0.88 | 0.64 | 95 | 1009.0 |
| 20260506170446 | 43 | 23 | 0.9 | 4.3 | 0.07 | 0.87 | 0.63 | 95 | 1009.1 |
| 20260506170435 | 43 | 323 | 0.0 | 1.7 | 0.07 | 0.87 | 0.63 | 95 | 1009.1 |
| 20260506165444 | 43 | 336 | 0.0 | 4.3 | 0.08 | 0.87 | 0.63 | 95 | 1009.3 |
| 20260506164942 | 43 | 323 | 0.9 | 4.3 | 0.08 | 0.86 | 0.62 | 95 | 1009.3 |
| 20260506164441 | 43 | 219 | 0.9 | 4.3 | 0.08 | 0.86 | 0.62 | 95 | 1009.2 |
| 20260506163937 | 43 | 18 | 0.9 | 3.5 | 0.08 | 0.85 | 0.61 | 95 | 1009.3 |
| 20260506163437 | 43 | 62 | 0.0 | 2.6 | 0.08 | 0.84 | 0.61 | 95 | 1009.4 |
| 20260506162936 | 43 | 13 | 0.0 | 2.6 | 0.09 | 0.84 | 0.60 | 95 | 1009.4 |
| 20260506162436 | 43 | 328 | 0.9 | 3.5 | 0.09 | 0.83 | 0.59 | 95 | 1009.5 |
| 20260506161937 | 43 | 295 | 0.0 | 3.5 | 0.08 | 0.82 | 0.58 | 95 | 1009.4 |
| 20260506161435 | 43 | 291 | 0.0 | 2.6 | 0.08 | 0.81 | 0.58 | 95 | 1009.5 |
| 20260506160935 | 43 | 50 | 0.0 | 2.6 | 0.09 | 0.81 | 0.57 | 95 | 1009.5 |
| 20260506160434 | 43 | 37 | 0.9 | 7.0 | 0.08 | 0.80 | 0.56 | 95 | 1009.5 |
| 20260506155935 | 43 | 288 | 1.7 | 7.0 | 0.08 | 0.80 | 0.56 | 95 | 1009.6 |
| 20260506155436 | 43 | 78 | 0.9 | 5.2 | 0.08 | 0.79 | 0.55 | 95 | 1009.7 |
| 20260506154934 | 43 | 46 | 0.9 | 5.2 | 0.08 | 0.78 | 0.55 | 95 | 1009.8 |
| 20260506154916 | 43 | 359 | 1.7 | 4.3 | 0.08 | 0.77 | 0.53 | 95 | 1009.7 |
| 20260506154527 | 43 | 13 | 0.9 | 4.3 | 0.08 | 0.78 | 0.54 | 95 | 1009.8 |
| 20260506153656 | 43 | 314 | 0.9 | 3.5 | 0.07 | 0.76 | 0.52 | 95 | 1009.6 |
| 20260506152935 | 43 | 321 | 0.9 | 2.6 | 0.06 | 0.75 | 0.51 | 95 | 1009.7 |
| 20260506152435 | 44 | 291 | 0.0 | 1.7 | 0.06 | 0.74 | 0.50 | 95 | 1009.8 |
| 20260506151933 | 44 | 311 | 0.0 | 1.7 | 0.07 | 0.74 | 0.50 | 95 | 1009.5 |
| 20260506151433 | 44 | 267 | 0.9 | 3.5 | 0.06 | 0.73 | 0.49 | 95 | 1009.5 |
| 20260506150933 | 44 | 297 | 0.9 | 3.5 | 0.06 | 0.72 | 0.48 | 95 | 1009.5 |
| 20260506150433 | 44 | 284 | 0.9 | 2.6 | 0.06 | 0.72 | 0.48 | 95 | 1009.4 |
| 20260506150143 | 44 | 35 | 0.0 | 1.7 | 0.05 | 0.71 | 0.47 | 95 | 1009.3 |
| 20260506145417 | 44 | 315 | 0.0 | 1.7 | 0.06 | 0.71 | 0.47 | 95 | 1009.3 |
| 20260506144912 | 43 | 238 | 0.9 | 2.6 | 0.05 | 0.70 | 0.46 | 95 | 1009.4 |
| 20260506144406 | 43 | 339 | 0.9 | 2.6 | 0.05 | 0.70 | 0.46 | 95 | 1009.4 |
| 20260506143900 | 43 | 338 | 1.7 | 6.1 | 0.04 | 0.69 | 0.45 | 95 | 1009.4 |
| 20260506143354 | 43 | 342 | 0.9 | 6.1 | 0.04 | 0.69 | 0.45 | 94 | 1009.4 |
| 20260506143109 | 43 | 27 | 0.9 | 4.3 | 0.03 | 0.68 | 0.45 | 94 | 1009.5 |
| 20260506142342 | 43 | 27 | 0.9 | 3.5 | 0.03 | 0.68 | 0.44 | 94 | 1009.7 |
| 20260506141836 | 43 | 5 | 0.0 | 1.7 | 0.02 | 0.67 | 0.43 | 94 | 1009.8 |
| 20260506141332 | 43 | 354 | 0.9 | 3.5 | 0.02 | 0.67 | 0.43 | 94 | 1009.8 |
| 20260506140823 | 43 | 312 | 1.7 | 5.2 | 0.02 | 0.66 | 0.42 | 94 | 1009.6 |
| 20260506140318 | 43 | 13 | 1.7 | 5.2 | 0.02 | 0.66 | 0.42 | 94 | 1009.4 |
| 20260506140033 | 44 | 304 | 0.9 | 5.2 | 0.02 | 0.66 | 0.42 | 94 | 1009.7 |
| 20260506135306 | 44 | 255 | 0.9 | 5.2 | 0.01 | 0.65 | 0.41 | 94 | 1009.5 |
| 20260506134800 | 44 | 20 | 0.9 | 4.3 | 0.02 | 0.65 | 0.41 | 94 | 1009.2 |
| 20260506134255 | 44 | 33 | 0.9 | 4.3 | 0.02 | 0.65 | 0.41 | 93 | 1009.3 |
| 20260506133748 | 44 | 293 | 0.9 | 3.5 | 0.03 | 0.65 | 0.41 | 94 | 1009.5 |
| 20260506133242 | 44 | 321 | 1.7 | 7.8 | 0.04 | 0.65 | 0.41 | 94 | 1009.6 |
| 20260506132735 | 44 | 31 | 1.7 | 7.8 | 0.04 | 0.65 | 0.41 | 93 | 1009.6 |
| 20260506132230 | 44 | 34 | 1.7 | 4.3 | 0.05 | 0.65 | 0.41 | 94 | 1009.6 |
| 20260506131724 | 44 | 63 | 0.9 | 4.3 | 0.06 | 0.65 | 0.41 | 94 | 1009.6 |
| 20260506131218 | 44 | 34 | 0.9 | 3.5 | 0.06 | 0.65 | 0.41 | 94 | 1009.8 |
| 20260506130713 | 44 | 30 | 0.9 | 3.5 | 0.06 | 0.64 | 0.40 | 94 | 1009.9 |
| 20260506130206 | 44 | 29 | 0.9 | 2.6 | 0.06 | 0.64 | 0.40 | 94 | 1009.9 |
| 20260506125919 | 44 | 39 | 1.7 | 4.3 | 0.07 | 0.64 | 0.40 | 93 | 1010.2 |
| 20260506125153 | 44 | 32 | 1.7 | 4.3 | 0.07 | 0.64 | 0.40 | 93 | 1009.9 |
| 20260506124648 | 44 | 24 | 0.9 | 3.5 | 0.06 | 0.63 | 0.39 | 94 | 1010.2 |
| 20260506124405 | 45 | 107 | 1.7 | 6.1 | 0.06 | 0.62 | 0.38 | 94 | 1010.2 |
| 20260506123635 | 45 | 44 | 1.7 | 6.1 | 0.06 | 0.61 | 0.37 | 94 | 1009.8 |
| 20260506123130 | 45 | 46 | 1.7 | 4.3 | 0.06 | 0.61 | 0.37 | 95 | 1009.6 |
| 20260506122625 | 45 | 34 | 0.9 | 4.3 | 0.07 | 0.61 | 0.37 | 95 | 1009.8 |
| 20260506122118 | 45 | 41 | 0.0 | 1.7 | 0.07 | 0.60 | 0.36 | 95 | 1010.1 |
| 20260506121837 | 45 | 32 | 0.0 | 1.7 | 0.07 | 0.59 | 0.35 | 95 | 1010.4 |
| 20260506121106 | 45 | 11 | 0.0 | 3.5 | 0.07 | 0.59 | 0.35 | 95 | 1010.4 |
| 20260506120600 | 45 | 341 | 0.9 | 3.5 | 0.06 | 0.58 | 0.34 | 95 | 1010.5 |
| 20260506120056 | 45 | 21 | 0.9 | 1.7 | 0.06 | 0.58 | 0.34 | 94 | 1010.5 |
| 20260506115551 | 45 | 30 | 0.9 | 1.7 | 0.05 | 0.57 | 0.33 | 94 | 1010.5 |
| 20260506115318 | 45 | 44 | 0.9 | 2.6 | 0.06 | 0.57 | 0.33 | 94 | 1010.5 |
| 20260506114549 | 45 | 68 | 0.0 | 2.6 | 0.06 | 0.57 | 0.33 | 94 | 1010.5 |
| 20260506114316 | 45 | 6 | 0.0 | 1.7 | 0.05 | 0.56 | 0.32 | 94 | 1010.7 |
| 20260506113546 | 45 | 4 | 0.0 | 1.7 | 0.04 | 0.55 | 0.31 | 94 | 1010.9 |
| 20260506113046 | 46 | 289 | 0.0 | 0.9 | 0.04 | 0.55 | 0.31 | 94 | 1010.7 |
| 20260506112547 | 46 | 16 | 0.0 | 1.7 | 0.03 | 0.54 | 0.30 | 94 | 1010.5 |
| 20260506112048 | 46 | 29 | 0.0 | 1.7 | 0.03 | 0.53 | 0.29 | 94 | 1010.3 |
| 20260506111547 | 46 | 304 | 0.9 | 3.5 | 0.02 | 0.52 | 0.28 | 94 | 1010.3 |
| 20260506111046 | 46 | 59 | 0.9 | 4.3 | 0.02 | 0.52 | 0.28 | 94 | 1009.8 |
| 20260506110541 | 46 | 34 | 0.9 | 4.3 | 0.02 | 0.52 | 0.28 | 94 | 1009.7 |
| 20260506110040 | 47 | 53 | 0.9 | 3.5 | 0.02 | 0.52 | 0.28 | 95 | 1009.9 |
| 20260506105538 | 47 | 342 | 0.9 | 5.2 | 0.02 | 0.52 | 0.28 | 95 | 1009.8 |
| 20260506105036 | 47 | 32 | 0.9 | 5.2 | 0.02 | 0.51 | 0.27 | 95 | 1010.1 |
| 20260506104536 | 47 | 28 | 0.9 | 5.2 | 0.03 | 0.51 | 0.27 | 95 | 1010.2 |
| 20260506104038 | 47 | 309 | 0.9 | 3.5 | 0.04 | 0.51 | 0.27 | 95 | 1010.2 |
| 20260506104026 | 47 | 323 | 0.0 | 3.5 | 0.04 | 0.51 | 0.27 | 95 | 1009.9 |
| 20260506103035 | 47 | 3 | 0.0 | 1.7 | 0.04 | 0.51 | 0.27 | 95 | 1009.9 |
| 20260506102534 | 47 | 283 | 0.0 | 1.7 | 0.05 | 0.51 | 0.27 | 95 | 1009.8 |
| 20260506102028 | 47 | 283 | 0.9 | 2.6 | 0.04 | 0.50 | 0.27 | 95 | 1009.9 |
| 20260506101528 | 47 | 297 | 0.9 | 2.6 | 0.04 | 0.50 | 0.26 | 95 | 1010.1 |
| 20260506101026 | 47 | 279 | 0.9 | 1.7 | 0.06 | 0.50 | 0.26 | 95 | 1010.1 |
| 20260506100528 | 47 | 296 | 0.0 | 1.7 | 0.06 | 0.50 | 0.26 | 95 | 1010.2 |
| 20260506100025 | 47 | 169 | 0.0 | 0.0 | 0.06 | 0.50 | 0.26 | 95 | 1010.1 |
| 20260506095525 | 48 | 169 | 0.9 | 3.5 | 0.06 | 0.50 | 0.26 | 95 | 1009.8 |
| 20260506095025 | 48 | 87 | 0.9 | 3.5 | 0.06 | 0.49 | 0.25 | 95 | 1009.5 |
| 20260506094526 | 48 | 240 | 0.0 | 1.7 | 0.05 | 0.48 | 0.24 | 95 | 1010.8 |
| 20260506094025 | 48 | 70 | 0.0 | 0.0 | 0.04 | 0.47 | 0.23 | 95 | 1010.4 |
| 20260506093524 | 48 | 70 | 0.0 | 0.0 | 0.04 | 0.47 | 0.23 | 95 | 1010.1 |
| 20260506093024 | 48 | 70 | 0.0 | 0.0 | 0.04 | 0.47 | 0.23 | 95 | 1010.1 |
| 20260506092524 | 48 | 70 | 0.0 | 0.9 | 0.04 | 0.46 | 0.22 | 95 | 1010.5 |
| 20260506092024 | 48 | 70 | 0.0 | 1.7 | 0.04 | 0.46 | 0.22 | 95 | 1010.5 |
| 20260506091747 | 48 | 75 | 0.9 | 1.7 | 0.04 | 0.46 | 0.22 | 95 | 1010.5 |
| 20260506091023 | 48 | 290 | 0.0 | 1.7 | 0.03 | 0.44 | 0.20 | 95 | 1010.8 |
| 20260506090521 | 48 | 46 | 0.0 | 1.7 | 0.03 | 0.44 | 0.20 | 95 | 1010.6 |
| 20260506090021 | 48 | 74 | 0.0 | 0.9 | 0.03 | 0.44 | 0.20 | 95 | 1010.4 |
| 20260506085521 | 48 | 74 | 0.0 | 2.6 | 0.04 | 0.44 | 0.20 | 95 | 1010.8 |
| 20260506085022 | 48 | 74 | 0.0 | 2.6 | 0.05 | 0.43 | 0.19 | 95 | 1010.6 |
| 20260506084521 | 48 | 76 | 0.0 | 1.7 | 0.05 | 0.43 | 0.19 | 95 | 1010.6 |
| 20260506084022 | 48 | 79 | 0.0 | 0.9 | 0.05 | 0.43 | 0.19 | 95 | 1010.5 |
| 20260506083745 | 48 | 49 | 0.0 | 0.9 | 0.05 | 0.43 | 0.19 | 94 | 1010.6 |
| 20260506083022 | 49 | 49 | 0.9 | 2.6 | 0.05 | 0.43 | 0.19 | 94 | 1010.6 |
| 20260506082522 | 49 | 70 | 0.9 | 2.6 | 0.04 | 0.42 | 0.18 | 94 | 1010.3 |
| 20260506082022 | 49 | 69 | 0.9 | 2.6 | 0.04 | 0.42 | 0.18 | 94 | 1010.6 |
| 20260506081521 | 49 | 39 | 0.9 | 2.6 | 0.04 | 0.42 | 0.18 | 94 | 1010.7 |
| 20260506081023 | 49 | 31 | 0.0 | 1.7 | 0.04 | 0.41 | 0.17 | 94 | 1010.6 |
| 20260506080521 | 49 | 3 | 0.9 | 4.3 | 0.04 | 0.41 | 0.17 | 94 | 1010.6 |
| 20260506073234 | 50 | 44 | 0.0 | 1.7 | 0.03 | 0.38 | 0.14 | 95 | 1010.4 |
| 20260506072513 | 50 | 42 | 0.9 | 2.6 | 0.03 | 0.38 | 0.14 | 95 | 1010.5 |
| 20260506072014 | 50 | 2 | 0.9 | 2.6 | 0.03 | 0.38 | 0.14 | 95 | 1010.5 |
| 20260506071512 | 50 | 25 | 0.0 | 1.7 | 0.03 | 0.38 | 0.14 | 95 | 1010.2 |
| 20260506071013 | 51 | 186 | 0.0 | 0.0 | 0.02 | 0.37 | 0.13 | 95 | 1010.2 |
| 20260506070509 | 51 | 186 | 0.0 | 0.9 | 0.02 | 0.37 | 0.13 | 95 | 1010.4 |
| 20260506062508 | 51 | 56 | 2.6 | 5.2 | 0.03 | 0.35 | 0.11 | 95 | 1010.1 |
| 20260506062232 | 51 | 63 | 1.7 | 5.2 | 0.04 | 0.35 | 0.11 | 96 | 1010.1 |
| 20260506061507 | 51 | 49 | 0.9 | 2.6 | 0.04 | 0.35 | 0.11 | 96 | 1010.4 |
| 20260506061001 | 51 | 31 | 0.0 | 1.7 | 0.04 | 0.35 | 0.11 | 95 | 1010.5 |
| 20260506060454 | 51 | 36 | 0.0 | 1.7 | 0.05 | 0.35 | 0.11 | 96 | 1010.4 |
| 20260506051356 | 52 | 56 | 0.0 | 0.0 | 0.07 | 0.31 | 0.07 | 95 | 1010.3 |
| 20260506050849 | 52 | 56 | 0.0 | 0.0 | 0.06 | 0.30 | 0.07 | 95 | 1010.6 |
| 20260506050344 | 52 | 56 | 0.0 | 1.7 | 0.05 | 0.29 | 0.05 | 95 | 1010.4 |
| 20260506045045 | 52 | 60 | 0.0 | 0.0 | 0.04 | 0.27 | 0.03 | 95 | 1010.3 |
| 20260506044319 | 52 | 60 | 0.0 | 0.0 | 0.04 | 0.27 | 0.03 | 95 | 1009.8 |
| 20260506043814 | 52 | 60 | 0.0 | 0.0 | 0.04 | 0.26 | 0.02 | 95 | 1009.7 |
| 20260506043306 | 52 | 60 | 0.0 | 0.9 | 0.04 | 0.26 | 0.02 | 95 | 1009.6 |
| 20260506042802 | 52 | 60 | 0.0 | 0.9 | 0.04 | 0.25 | 0.01 | 94 | 1010.1 |
| 20260506042255 | 52 | 73 | 0.0 | 0.9 | 0.05 | 0.25 | 0.01 | 94 | 1009.5 |
| 20260506042008 | 52 | 64 | 0.0 | 0.9 | 0.08 | 0.25 | 0.01 | 94 | 1009.9 |
| 20260506041504 | 52 | 64 | 0.0 | 0.9 | 0.07 | 0.24 | 0.00 | 94 | 1009.9 |
| 20260506040737 | 52 | 64 | 0.0 | 0.0 | 0.08 | 0.24 | 0.00 | 94 | 1010.4 |
| 20260506040232 | 52 | 64 | 0.0 | 0.9 | 0.08 | 0.24 | 0.00 | 94 | 1010.4 |
| 20260506035728 | 52 | 64 | 0.0 | 0.9 | 0.09 | 0.24 | 0.24 | 94 | 1010.1 |
| 20260506035221 | 52 | 64 | 0.0 | 0.9 | 0.08 | 0.23 | 0.23 | 93 | 1009.9 |
| 20260506034713 | 52 | 64 | 0.0 | 0.0 | 0.08 | 0.23 | 0.23 | 93 | 1010.2 |
| 20260506034430 | 52 | 64 | 0.0 | 0.9 | 0.07 | 0.22 | 0.22 | 93 | 1010.3 |
| 20260506033702 | 53 | 64 | 0.0 | 1.7 | 0.07 | 0.22 | 0.22 | 92 | 1010.1 |
| 20260506033157 | 53 | 64 | 0.9 | 1.7 | 0.07 | 0.22 | 0.22 | 91 | 1009.7 |
| 20260506032652 | 53 | 62 | 0.0 | 1.7 | 0.06 | 0.21 | 0.21 | 90 | 1009.8 |
| 20260506032411 | 54 | 354 | 0.0 | 2.6 | 0.04 | 0.19 | 0.20 | 87 | 1009.9 |
| 20260506031638 | 55 | 327 | 0.0 | 2.6 | 0.02 | 0.17 | 0.17 | 84 | 1009.9 |
| 20260506031131 | 55 | 324 | 0.9 | 1.7 | 0.02 | 0.17 | 0.17 | 85 | 1009.5 |
| 20260506030625 | 55 | 18 | 0.9 | 1.7 | 0.01 | 0.16 | 0.16 | 85 | 1009.4 |
| 20260506030121 | 56 | 7 | 0.0 | 1.7 | 0.01 | 0.16 | 0.16 | 84 | 1009.3 |
| 20260506025613 | 56 | 350 | 0.0 | 1.7 | 0.00 | 0.15 | 0.15 | 83 | 1009.1 |
| 20260506025108 | 57 | 349 | 0.0 | 1.7 | 0.00 | 0.15 | 0.15 | 79 | 1009.0 |
| 20260506024607 | 57 | 357 | 0.9 | 3.5 | 0.00 | 0.15 | 0.15 | 81 | 1008.9 |
| 20260506024107 | 57 | 338 | 0.9 | 4.3 | 0.00 | 0.15 | 0.15 | 79 | 1009.0 |
| 20260506023606 | 57 | 335 | 0.9 | 4.3 | 0.00 | 0.15 | 0.15 | 80 | 1009.0 |
| 20260506023106 | 57 | 336 | 0.9 | 3.5 | 0.00 | 0.15 | 0.15 | 82 | 1008.8 |
| 20260506022606 | 57 | 49 | 0.9 | 7.0 | 0.00 | 0.15 | 0.15 | 86 | 1008.9 |
| 20260506022106 | 57 | 351 | 0.9 | 7.0 | 0.00 | 0.15 | 0.15 | 87 | 1008.9 |
| 20260506021604 | 57 | 358 | 1.7 | 7.0 | 0.00 | 0.15 | 0.15 | 90 | 1008.5 |
| 20260506021323 | 57 | 51 | 2.6 | 7.0 | 0.00 | 0.15 | 0.15 | 94 | 1008.2 |
| 20260506020604 | 57 | 327 | 2.6 | 7.0 | 0.00 | 0.15 | 0.15 | 96 | 1008.6 |
| 20260506020106 | 57 | 2 | 0.9 | 3.5 | 0.00 | 0.15 | 0.15 | 96 | 1008.3 |
| 20260506015604 | 57 | 218 | 0.0 | 0.0 | 0.01 | 0.15 | 0.15 | 96 | 1008.2 |
| 20260506015104 | 57 | 218 | 0.0 | 0.0 | 0.01 | 0.15 | 0.15 | 96 | 1008.2 |
| 20260506014603 | 57 | 218 | 0.0 | 0.0 | 0.02 | 0.15 | 0.15 | 95 | 1008.1 |
| 20260506014325 | 57 | 218 | 0.0 | 0.0 | 0.02 | 0.15 | 0.15 | 95 | 1007.9 |
| 20260506013558 | 57 | 218 | 0.0 | 0.0 | 0.02 | 0.15 | 0.15 | 95 | 1007.8 |
| 20260506013056 | 57 | 218 | 0.0 | 0.0 | 0.03 | 0.15 | 0.15 | 95 | 1007.7 |
| 20260506012555 | 57 | 218 | 0.0 | 0.0 | 0.03 | 0.15 | 0.15 | 95 | 1007.6 |
| 20260506012053 | 57 | 218 | 0.0 | 0.0 | 0.03 | 0.15 | 0.15 | 95 | 1007.5 |
| 20260506011820 | 57 | 218 | 0.0 | 0.9 | 0.03 | 0.15 | 0.15 | 95 | 1007.3 |
| 20260506011050 | 58 | 218 | 0.0 | 0.9 | 0.03 | 0.15 | 0.15 | 95 | 1007.3 |
| 20260506010552 | 58 | 218 | 0.0 | 0.9 | 0.03 | 0.15 | 0.15 | 95 | 1007.1 |
| 20260506010047 | 58 | 218 | 0.0 | 0.9 | 0.03 | 0.15 | 0.15 | 94 | 1007.2 |
| 20260506005546 | 58 | 218 | 0.0 | 0.9 | 0.02 | 0.14 | 0.15 | 94 | 1007.2 |
| 20260506005043 | 58 | 218 | 0.0 | 0.9 | 0.02 | 0.14 | 0.14 | 94 | 1007.2 |
| 20260506004542 | 58 | 217 | 0.0 | 0.0 | 0.01 | 0.13 | 0.13 | 94 | 1007.1 |
| 20260506004042 | 58 | 218 | 0.0 | 0.9 | 0.01 | 0.13 | 0.13 | 93 | 1007.2 |
| 20260506003803 | 58 | 218 | 0.0 | 0.9 | 0.01 | 0.13 | 0.13 | 93 | 1007.1 |
| 20260506003534 | 58 | 218 | 0.0 | 0.0 | 0.00 | 0.12 | 0.12 | 93 | 1006.8 |
| 20260506002538 | 58 | 218 | 0.0 | 0.9 | 0.00 | 0.12 | 0.12 | 93 | 1006.7 |
| 20260506002038 | 58 | 218 | 0.0 | 0.9 | 0.00 | 0.12 | 0.12 | 93 | 1006.6 |
| 20260506001538 | 58 | 218 | 0.0 | 0.9 | 0.00 | 0.12 | 0.12 | 93 | 1006.5 |
| 20260506001037 | 58 | 218 | 0.0 | 2.6 | 0.00 | 0.12 | 0.12 | 93 | 1006.5 |
| 20260506000540 | 58 | 218 | 0.9 | 2.6 | 0.00 | 0.12 | 0.12 | 92 | 1006.6 |
| 20260506000038 | 59 | 217 | 0.9 | 0.9 | 0.00 | 0.12 | 0.12 | 92 | 1006.5 |
| 20260505235539 | 59 | 217 | 0.0 | 0.9 | 0.00 | 0.12 | 0.12 | 91 | 1006.6 |
| 20260505235038 | 59 | 217 | 0.0 | 0.9 | 0.00 | 0.12 | 0.12 | 90 | 1006.5 |
| 20260505234538 | 60 | 217 | 0.0 | 0.9 | 0.00 | 0.12 | 0.12 | 89 | 1006.4 |
| 20260505234303 | 60 | 217 | 0.0 | 0.9 | 0.00 | 0.12 | 0.12 | 90 | 1006.5 |
| 20260505233539 | 60 | 217 | 0.9 | 0.9 | 0.00 | 0.12 | 0.12 | 90 | 1006.7 |
| 20260505233037 | 60 | 218 | 0.0 | 0.9 | 0.00 | 0.12 | 0.12 | 90 | 1006.8 |
| 20260505232538 | 60 | 217 | 0.0 | 0.0 | 0.00 | 0.12 | 0.12 | 89 | 1006.7 |
| 20260505232039 | 61 | 217 | 0.0 | 0.9 | 0.00 | 0.12 | 0.12 | 88 | 1006.5 |
| 20260505231538 | 61 | 217 | 0.0 | 0.9 | 0.00 | 0.12 | 0.12 | 87 | 1006.3 |
| 20260505231036 | 62 | 237 | 0.0 | 2.6 | 0.00 | 0.12 | 0.12 | 86 | 1006.1 |
| 20260505231028 | 62 | 237 | 0.9 | 2.6 | 0.00 | 0.12 | 0.12 | 85 | 1006.0 |
| 20260505230035 | 62 | 212 | 0.9 | 2.6 | 0.00 | 0.12 | 0.12 | 86 | 1005.8 |
| 20260505230024 | 62 | 184 | 0.9 | 7.0 | 0.00 | 0.12 | 0.12 | 86 | 1005.8 |
| 20260505225029 | 62 | 187 | 1.7 | 7.0 | 0.00 | 0.12 | 0.12 | 86 | 1005.9 |
| 20260505224749 | 62 | 179 | 1.7 | 6.1 | 0.00 | 0.12 | 0.12 | 88 | 1005.9 |
| 20260505224255 | 61 | 192 | 1.7 | 4.3 | 0.00 | 0.12 | 0.12 | 91 | 1006.0 |
| 20260505223528 | 61 | 178 | 0.9 | 4.3 | 0.00 | 0.12 | 0.12 | 94 | 1006.0 |
| 20260505223028 | 61 | 217 | 0.0 | 2.6 | 0.00 | 0.12 | 0.12 | 95 | 1006.1 |
| 20260505222529 | 61 | 181 | 0.9 | 4.3 | 0.00 | 0.12 | 0.12 | 95 | 1006.2 |
| 20260505222027 | 61 | 181 | 2.6 | 11.3 | 0.00 | 0.12 | 0.12 | 95 | 1006.3 |
| 20260505221528 | 61 | 184 | 1.7 | 11.3 | 0.00 | 0.12 | 0.12 | 95 | 1006.3 |
| 20260505221248 | 61 | 218 | 0.0 | 2.6 | 0.00 | 0.12 | 0.12 | 95 | 1006.1 |
| 20260505220514 | 61 | 179 | 0.0 | 2.6 | 0.00 | 0.12 | 0.12 | 96 | 1005.9 |
| 20260505220008 | 61 | 179 | 0.9 | 3.5 | 0.00 | 0.12 | 0.12 | 95 | 1005.9 |
| 20260505215503 | 61 | 186 | 1.7 | 4.3 | 0.00 | 0.12 | 0.12 | 95 | 1005.9 |
| 20260505214957 | 61 | 167 | 1.7 | 4.3 | 0.00 | 0.12 | 0.12 | 95 | 1005.8 |
| 20260505214450 | 61 | 187 | 0.9 | 3.5 | 0.00 | 0.12 | 0.12 | 96 | 1005.6 |
| 20260505213945 | 60 | 132 | 0.9 | 3.5 | 0.00 | 0.12 | 0.12 | 96 | 1005.7 |
| 20260505213438 | 60 | 213 | 0.9 | 3.5 | 0.00 | 0.12 | 0.12 | 96 | 1005.8 |
| 20260505212932 | 60 | 141 | 0.9 | 3.5 | 0.02 | 0.12 | 0.12 | 95 | 1005.7 |
| 20260505212425 | 60 | 162 | 0.9 | 3.5 | 0.02 | 0.12 | 0.12 | 95 | 1005.8 |
| 20260505211920 | 60 | 150 | 0.9 | 3.5 | 0.03 | 0.12 | 0.12 | 95 | 1005.7 |
| 20260505211414 | 60 | 138 | 0.9 | 2.6 | 0.05 | 0.12 | 0.12 | 95 | 1005.6 |
| 20260505210907 | 60 | 202 | 0.9 | 2.6 | 0.06 | 0.12 | 0.12 | 95 | 1005.7 |
| 20260505210627 | 60 | 226 | 0.9 | 2.6 | 0.06 | 0.12 | 0.12 | 95 | 1005.5 |
| 20260505205856 | 60 | 186 | 0.9 | 2.6 | 0.06 | 0.12 | 0.12 | 95 | 1005.2 |
| 20260505205351 | 61 | 158 | 0.9 | 4.3 | 0.06 | 0.12 | 0.12 | 95 | 1005.2 |
| 20260505204846 | 61 | 167 | 0.9 | 4.3 | 0.06 | 0.12 | 0.12 | 95 | 1005.3 |
| 20260505204339 | 61 | 170 | 1.7 | 5.2 | 0.06 | 0.12 | 0.12 | 95 | 1005.2 |
| 20260505203834 | 60 | 166 | 1.7 | 6.1 | 0.06 | 0.12 | 0.12 | 95 | 1005.3 |
| 20260505203327 | 60 | 144 | 1.7 | 6.1 | 0.05 | 0.11 | 0.11 | 95 | 1005.1 |
| 20260505202822 | 60 | 336 | 0.9 | 4.3 | 0.04 | 0.10 | 0.10 | 95 | 1005.5 |
| 20260505202314 | 61 | 97 | 0.9 | 4.3 | 0.07 | 0.09 | 0.09 | 95 | 1005.6 |